Time;durP1;ratioP1;P1;durP2;ratioP2;P2;SDS_P1;SDS_P2;PMS_P1;PMS_P2;Temp;Humidity;BMP_temperature;BMP_pressure;BME280_temperature;BME280_humidity;BME280_pressure;Samples;Min_cycle;Max_cycle;Signal;HPM_P1;HPM_P2
2023/08/19 00:02:14;;;;;;;;;;;;;;;30.85;30.65;101891.06;5085196;28;20269;-64
2023/08/19 00:04:40;;;;;;;;;;;;;;;30.85;30.63;101902.16;5096408;28;19926;-64
2023/08/19 00:07:05;;;;;;;;;;;;;;;30.89;30.45;101899.63;5081092;28;19944;-64
2023/08/19 00:09:34;;;;;;;;;;;;;;;30.85;30.39;101891.06;5076269;28;20284;-64
2023/08/19 00:12:00;;;;;;;;;;;;;;;30.90;30.50;101890.16;5075820;28;19912;-64
2023/08/19 00:14:27;;;;;;;;;;;;;;;30.85;30.95;101892.97;5075264;28;19917;-64
2023/08/19 00:16:53;;;;;;;;;;;;;;;30.85;30.49;101895.75;5075595;28;19912;-64
2023/08/19 00:19:18;;;;;;;;;;;;;;;30.79;31.12;101897.75;5075066;28;20315;-64
2023/08/19 00:21:43;;;;;;;;;;;;;;;30.78;30.15;101889.78;5075063;28;19962;-64
2023/08/19 00:24:09;;;;;;;;;;;;;;;30.77;30.47;101888.91;5074949;28;19916;-64
2023/08/19 00:26:34;;;;;;;;;;;;;;;30.72;30.87;101896.47;5073521;28;19913;-63
2023/08/19 00:28:59;;;;;;;;;;;;;;;30.71;30.64;101900.38;5075180;28;19912;-64
2023/08/19 00:31:26;;;;;;;;;;;;;;;30.66;31.29;101904.88;5074991;28;19917;-64
2023/08/19 00:33:52;;;;;;;;;;;;;;;30.63;31.49;101908.22;5074932;28;19916;-64
2023/08/19 00:36:17;;;;;;;;;;;;;;;30.62;31.56;101903.78;5057417;28;20406;-64
2023/08/19 00:38:44;;;;;;;;;;;;;;;30.62;31.04;101898.25;5074612;28;19939;-64
2023/08/19 00:41:10;;;;;;;;;;;;;;;30.60;31.44;101899.66;5074685;28;20258;-64
2023/08/19 00:43:37;;;;;;;;;;;;;;;30.61;31.39;101898.53;5074601;28;19927;-64
2023/08/19 00:46:03;;;;;;;;;;;;;;;30.62;31.43;101894.66;5075037;28;19913;-64
2023/08/19 00:48:28;;;;;;;;;;;;;;;30.56;31.29;101898.63;5074635;28;19927;-64
2023/08/19 00:50:54;;;;;;;;;;;;;;;30.53;31.77;101897.25;5074688;28;19913;-64
2023/08/19 00:53:20;;;;;;;;;;;;;;;30.51;32.20;101896.72;5056865;28;19912;-64
2023/08/19 00:55:45;;;;;;;;;;;;;;;30.51;31.86;101890.34;5074109;28;20038;-64
2023/08/19 00:58:11;;;;;;;;;;;;;;;30.53;31.43;101894.47;5074682;28;19912;-64
2023/08/19 01:00:37;;;;;;;;;;;;;;;30.51;32.05;101891.16;5074189;28;19912;-64
2023/08/19 01:03:04;;;;;;;;;;;;;;;30.51;31.90;101888.41;5082888;28;20032;-64
2023/08/19 01:05:39;;;;;;;;;;;;;;;30.51;32.65;101893.13;5094520;28;20262;-64
2023/08/19 01:08:10;;;;;;;;;;;;;;;30.46;32.30;101882.91;5094322;28;19912;-64
2023/08/19 01:10:38;;;;;;;;;;;;;;;30.49;32.08;101876.78;5094109;28;19935;-64
2023/08/19 01:13:04;;;;;;;;;;;;;;;30.47;32.58;101874.28;5093959;28;19935;-64
2023/08/19 01:15:32;;;;;;;;;;;;;;;30.45;31.90;101876.53;5065053;28;20358;-64
2023/08/19 01:17:58;;;;;;;;;;;;;;;30.48;31.96;101869.59;5054252;28;19912;-64
2023/08/19 01:20:29;;;;;;;;;;;;;;;30.45;32.29;101872.94;5054043;28;19913;-64
2023/08/19 01:23:00;;;;;;;;;;;;;;;30.48;32.33;101870.41;5054053;28;19970;-64
2023/08/19 01:25:26;;;;;;;;;;;;;;;30.46;32.46;101864.34;5053990;28;19912;-64
2023/08/19 01:27:51;;;;;;;;;;;;;;;30.44;32.16;101863.81;5056147;28;19920;-64
2023/08/19 01:30:17;;;;;;;;;;;;;;;30.43;32.18;101864.91;5073890;28;19924;-64
2023/08/19 01:32:43;;;;;;;;;;;;;;;30.43;32.49;101858.56;5073797;28;20368;-64
2023/08/19 01:35:09;;;;;;;;;;;;;;;30.43;32.97;101872.41;5055688;28;19919;-64
2023/08/19 01:37:35;;;;;;;;;;;;;;;30.41;32.63;101869.94;5073204;28;19912;-64
2023/08/19 01:40:00;;;;;;;;;;;;;;;30.39;32.51;101876.91;5073644;28;19912;-64
2023/08/19 01:42:26;;;;;;;;;;;;;;;30.39;32.80;101872.19;5073712;28;19916;-64
2023/08/19 01:44:52;;;;;;;;;;;;;;;30.39;32.98;101865.81;5074022;28;19919;-64
2023/08/19 01:47:17;;;;;;;;;;;;;;;30.40;32.30;101859.13;5073433;28;19927;-64
2023/08/19 01:49:43;;;;;;;;;;;;;;;30.41;32.07;101863.56;5073549;28;19913;-64
2023/08/19 01:52:09;;;;;;;;;;;;;;;30.44;32.32;101858.25;5073809;28;19920;-64
2023/08/19 01:54:35;;;;;;;;;;;;;;;30.43;33.30;101853.81;5072830;28;20452;-64
2023/08/19 01:57:01;;;;;;;;;;;;;;;30.44;32.70;101851.88;5073498;28;20003;-64
2023/08/19 01:59:26;;;;;;;;;;;;;;;30.44;32.22;101846.31;5068868;28;19916;-64
2023/08/19 02:01:51;;;;;;;;;;;;;;;30.46;32.77;101844.09;5093199;28;20498;-64
2023/08/19 02:04:17;;;;;;;;;;;;;;;30.45;32.66;101842.44;5093120;28;19924;-64
2023/08/19 02:06:42;;;;;;;;;;;;;;;30.45;32.67;101845.22;5093591;28;20372;-64
2023/08/19 02:09:08;;;;;;;;;;;;;;;30.43;32.61;101844.69;5093707;28;19916;-64
2023/08/19 02:11:33;;;;;;;;;;;;;;;30.42;32.61;101835.56;5093361;28;20335;-64
2023/08/19 02:13:58;;;;;;;;;;;;;;;30.40;33.05;101840.53;5093263;28;19912;-64
2023/08/19 02:16:23;;;;;;;;;;;;;;;30.40;32.68;101840.53;5093568;28;19919;-64
2023/08/19 02:18:49;;;;;;;;;;;;;;;30.39;32.69;101836.13;5093135;28;19937;-64
2023/08/19 02:21:14;;;;;;;;;;;;;;;30.41;32.71;101839.44;5092795;28;19919;-64
2023/08/19 02:23:39;;;;;;;;;;;;;;;30.41;32.88;101841.38;5092922;28;19916;-64
2023/08/19 02:26:04;;;;;;;;;;;;;;;30.37;32.42;101834.75;5074395;28;19913;-64
2023/08/19 02:28:30;;;;;;;;;;;;;;;30.37;32.68;101829.22;5072629;28;20096;-64
2023/08/19 02:31:00;;;;;;;;;;;;;;;30.38;32.96;101828.09;5054856;28;19922;-64
2023/08/19 02:33:25;;;;;;;;;;;;;;;30.38;32.92;101825.34;5072763;28;19917;-64
2023/08/19 02:35:51;;;;;;;;;;;;;;;30.39;32.92;101832.53;5073067;28;19919;-64
2023/08/19 02:38:17;;;;;;;;;;;;;;;30.39;32.84;101827.00;5072554;28;19912;-64
2023/08/19 02:40:46;;;;;;;;;;;;;;;30.39;33.03;101833.38;5072939;28;19918;-64
2023/08/19 02:43:12;;;;;;;;;;;;;;;30.34;32.71;101829.81;5072637;28;19974;-64
2023/08/19 02:45:40;;;;;;;;;;;;;;;30.35;32.70;101825.91;5072649;28;19917;-64
2023/08/19 02:48:05;;;;;;;;;;;;;;;30.33;32.80;101819.84;5073038;28;20375;-64
2023/08/19 02:50:30;;;;;;;;;;;;;;;30.30;32.86;101810.97;5071370;28;20011;-64
2023/08/19 02:52:56;;;;;;;;;;;;;;;30.30;33.24;101815.69;5072746;28;19913;-64
2023/08/19 02:55:22;;;;;;;;;;;;;;;30.30;33.04;101815.69;5071983;28;19917;-64
2023/08/19 02:57:47;;;;;;;;;;;;;;;30.27;32.91;101819.91;5072458;28;19923;-64
2023/08/19 03:00:14;;;;;;;;;;;;;;;30.29;32.33;101817.66;5072747;28;19919;-64
2023/08/19 03:02:39;;;;;;;;;;;;;;;30.28;32.69;101809.63;5085098;28;19916;-64
2023/08/19 03:05:05;;;;;;;;;;;;;;;30.22;33.46;101817.16;5092752;28;20407;-64
2023/08/19 03:07:30;;;;;;;;;;;;;;;30.23;33.03;101806.91;5092676;28;19919;-64
2023/08/19 03:09:57;;;;;;;;;;;;;;;30.18;32.64;101810.56;5083220;28;19922;-64
2023/08/19 03:12:22;;;;;;;;;;;;;;;30.22;32.53;101811.63;5072553;28;20007;-64
2023/08/19 03:14:47;;;;;;;;;;;;;;;30.21;32.72;101807.19;5072723;28;19962;-64
2023/08/19 03:17:13;;;;;;;;;;;;;;;30.20;32.78;101801.94;5072267;28;19913;-64
2023/08/19 03:19:38;;;;;;;;;;;;;;;30.20;32.85;101807.47;5072471;28;20003;-64
2023/08/19 03:22:03;;;;;;;;;;;;;;;30.16;32.71;101807.25;5072303;28;19958;-64
2023/08/19 03:24:29;;;;;;;;;;;;;;;30.09;33.17;101810.38;5072583;28;19916;-64
2023/08/19 03:26:54;;;;;;;;;;;;;;;30.09;33.82;101807.59;5072310;28;20296;-64
2023/08/19 03:29:19;;;;;;;;;;;;;;;30.14;32.60;101800.34;5072296;28;19969;-64
2023/08/19 03:31:44;;;;;;;;;;;;;;;30.10;33.34;101800.94;5072483;28;19912;-64
2023/08/19 03:34:10;;;;;;;;;;;;;;;30.10;33.21;101797.34;5072321;28;20269;-64
2023/08/19 03:36:35;;;;;;;;;;;;;;;30.08;33.57;101799.59;5072314;28;19912;-64
2023/08/19 03:39:01;;;;;;;;;;;;;;;30.06;32.93;101799.06;5072233;28;19913;-64
2023/08/19 03:41:26;;;;;;;;;;;;;;;30.05;33.27;101805.69;5072266;28;19920;-64
2023/08/19 03:43:51;;;;;;;;;;;;;;;30.04;32.82;101804.06;5072235;28;19912;-64
2023/08/19 03:46:16;;;;;;;;;;;;;;;30.06;32.57;101813.72;5054554;28;19917;-64
2023/08/19 03:48:42;;;;;;;;;;;;;;;30.05;33.43;101817.63;5072548;28;19939;-64
2023/08/19 03:51:07;;;;;;;;;;;;;;;30.03;33.24;101819.03;5072480;28;19921;-64
2023/08/19 03:53:35;;;;;;;;;;;;;;;30.01;32.96;101811.00;5072547;28;19912;-64
2023/08/19 03:56:00;;;;;;;;;;;;;;;30.04;33.16;101826.22;5071517;28;19919;-64
2023/08/19 03:58:25;;;;;;;;;;;;;;;30.07;33.16;101831.16;5071009;28;20341;-64
2023/08/19 04:00:51;;;;;;;;;;;;;;;30.04;32.95;101817.91;5073427;28;19912;-64
2023/08/19 04:03:16;;;;;;;;;;;;;;;30.03;33.51;101827.34;5093259;28;20008;-64
2023/08/19 04:05:41;;;;;;;;;;;;;;;29.97;33.12;101821.03;5095984;28;19912;-64
2023/08/19 04:08:07;;;;;;;;;;;;;;;29.96;33.06;101821.31;5095922;28;19923;-64
2023/08/19 04:10:32;;;;;;;;;;;;;;;29.95;33.39;101822.44;5078899;28;19916;-64
2023/08/19 04:12:57;;;;;;;;;;;;;;;29.95;33.25;101825.22;5075821;28;19970;-64
2023/08/19 04:15:22;;;;;;;;;;;;;;;29.90;33.50;101826.91;5075606;28;20003;-64
2023/08/19 04:17:48;;;;;;;;;;;;;;;29.91;33.28;101830.50;5075433;28;19919;-64
2023/08/19 04:20:13;;;;;;;;;;;;;;;29.92;33.44;101830.22;5075724;28;20003;-64
2023/08/19 04:22:40;;;;;;;;;;;;;;;29.91;33.23;101831.31;5075823;28;20021;-64
2023/08/19 04:25:06;;;;;;;;;;;;;;;29.94;32.92;101841.00;5075098;28;19912;-64
2023/08/19 04:27:32;;;;;;;;;;;;;;;29.87;33.57;101835.78;5075421;28;19962;-64
2023/08/19 04:29:57;;;;;;;;;;;;;;;29.86;33.19;101839.66;5040492;28;19920;-64
2023/08/19 04:32:22;;;;;;;;;;;;;;;29.83;33.13;101834.72;5074833;28;19913;-64
2023/08/19 04:34:47;;;;;;;;;;;;;;;29.81;33.19;101842.50;5075059;28;19916;-64
2023/08/19 04:37:13;;;;;;;;;;;;;;;29.66;33.32;101812.13;5075007;28;20053;-64
2023/08/19 04:39:38;;;;;;;;;;;;;;;29.83;33.33;101843.03;5075192;28;19954;-64
2023/08/19 04:42:03;;;;;;;;;;;;;;;29.82;33.52;101841.38;5074649;28;19913;-64
2023/08/19 04:44:30;;;;;;;;;;;;;;;29.81;33.61;101836.97;5074821;28;19912;-64
2023/08/19 04:46:55;;;;;;;;;;;;;;;29.79;33.66;101841.13;5074573;28;20418;-64
2023/08/19 04:49:20;;;;;;;;;;;;;;;29.80;33.51;101832.53;5074631;28;19916;-64
2023/08/19 04:51:46;;;;;;;;;;;;;;;29.82;33.33;101835.03;5074969;28;19912;-64
2023/08/19 04:54:11;;;;;;;;;;;;;;;29.82;33.34;101844.16;5073963;28;20316;-64
2023/08/19 04:56:36;;;;;;;;;;;;;;;29.82;33.00;101835.84;5073334;28;19920;-64
2023/08/19 04:59:02;;;;;;;;;;;;;;;29.82;33.26;101830.31;5074806;28;20002;-64
2023/08/19 05:01:28;;;;;;;;;;;;;;;29.83;33.00;101829.19;5077067;28;20699;-64
2023/08/19 05:03:54;;;;;;;;;;;;;;;29.83;33.12;101834.72;5094400;28;20049;-64
2023/08/19 05:06:19;;;;;;;;;;;;;;;29.84;33.29;101833.59;5094591;28;19919;-64
2023/08/19 05:08:45;;;;;;;;;;;;;;;29.82;33.48;101824.75;5083981;28;19995;-64
2023/08/19 05:11:10;;;;;;;;;;;;;;;29.82;33.44;101819.22;5074394;28;19923;-64
2023/08/19 05:13:35;;;;;;;;;;;;;;;29.82;33.53;101826.72;5073500;28;19987;-64
2023/08/19 05:16:01;;;;;;;;;;;;;;;29.77;33.27;101819.25;5073933;28;19935;-64
2023/08/19 05:18:26;;;;;;;;;;;;;;;29.76;33.23;101823.16;5074482;28;19923;-64
2023/08/19 05:20:51;;;;;;;;;;;;;;;29.84;33.36;101828.06;5074686;28;20014;-64
2023/08/19 05:23:17;;;;;;;;;;;;;;;29.87;33.19;101818.38;5056469;28;19916;-64
2023/08/19 05:25:42;;;;;;;;;;;;;;;29.71;33.06;101785.22;5074208;28;19935;-64
2023/08/19 05:28:08;;;;;;;;;;;;;;;29.94;33.04;101818.84;5074493;28;19923;-64
2023/08/19 05:30:34;;;;;;;;;;;;;;;29.96;33.30;101830.47;5074309;28;19912;-64
2023/08/19 05:33:00;;;;;;;;;;;;;;;29.87;32.76;101824.72;5074191;28;20005;-64
2023/08/19 05:35:26;;;;;;;;;;;;;;;29.87;33.14;101823.91;5073930;28;19946;-64
2023/08/19 05:37:51;;;;;;;;;;;;;;;29.88;33.13;101834.69;5073553;28;19912;-64
2023/08/19 05:40:16;;;;;;;;;;;;;;;29.91;32.88;101839.63;5073480;28;19912;-64
2023/08/19 05:42:42;;;;;;;;;;;;;;;29.97;33.11;101834.06;5073335;28;19917;-64
2023/08/19 05:45:07;;;;;;;;;;;;;;;29.97;32.86;101845.94;5073403;28;19920;-64
2023/08/19 05:47:32;;;;;;;;;;;;;;;29.95;32.81;101839.06;5072194;28;19912;-64
2023/08/19 05:49:58;;;;;;;;;;;;;;;29.83;33.00;101837.50;5073254;28;20011;-64
2023/08/19 05:52:23;;;;;;;;;;;;;;;29.82;32.89;101835.03;5073634;28;19936;-64
2023/08/19 05:54:49;;;;;;;;;;;;;;;29.85;32.72;101835.25;5072562;28;19912;-64
2023/08/19 05:57:14;;;;;;;;;;;;;;;29.89;32.79;101832.75;5073530;28;19947;-64
2023/08/19 05:59:40;;;;;;;;;;;;;;;29.96;32.58;101838.78;5073338;28;19916;-64
2023/08/19 06:02:05;;;;;;;;;;;;;;;29.98;32.82;101839.31;5081032;28;19919;-64
2023/08/19 06:04:31;;;;;;;;;;;;;;;29.97;33.03;101843.19;5093483;28;20003;-64
2023/08/19 06:06:56;;;;;;;;;;;;;;;29.94;32.39;101845.69;5086867;28;19947;-64
2023/08/19 06:09:21;;;;;;;;;;;;;;;29.88;32.50;101844.94;5073475;28;19919;-64
2023/08/19 06:11:48;;;;;;;;;;;;;;;29.86;32.69;101847.16;5073529;28;20377;-64
2023/08/19 06:14:13;;;;;;;;;;;;;;;29.81;32.44;101848.06;5073478;28;19912;-64
2023/08/19 06:16:40;;;;;;;;;;;;;;;29.85;32.84;101837.22;5073426;28;19985;-64
2023/08/19 06:19:05;;;;;;;;;;;;;;;29.90;32.46;101843.53;5073359;28;19923;-64
2023/08/19 06:21:30;;;;;;;;;;;;;;;29.95;32.50;101848.19;5073428;28;19912;-64
2023/08/19 06:23:55;;;;;;;;;;;;;;;30.04;32.64;101840.91;5073153;28;19965;-64
2023/08/19 06:26:21;;;;;;;;;;;;;;;30.06;32.05;101855.28;5073155;28;20392;-64
2023/08/19 06:28:46;;;;;;;;;;;;;;;30.03;32.26;101857.81;5073035;28;19912;-64
2023/08/19 06:31:11;;;;;;;;;;;;;;;30.08;31.81;101855.00;5072978;28;19912;-64
2023/08/19 06:33:37;;;;;;;;;;;;;;;30.14;32.20;101859.38;5073284;28;19920;-64
2023/08/19 06:36:02;;;;;;;;;;;;;;;30.11;32.50;101865.50;5072937;28;19913;-64
2023/08/19 06:38:31;;;;;;;;;;;;;;;30.16;32.11;101868.19;5055050;28;19912;-64
2023/08/19 06:41:09;;;;;;;;;;;;;;;30.17;31.98;101867.09;5072632;28;19912;-64
2023/08/19 06:43:45;;;;;;;;;;;;;;;30.13;32.23;101862.41;5073052;28;20438;-64
2023/08/19 06:46:10;;;;;;;;;;;;;;;30.15;32.32;101863.78;5072888;28;19991;-64
2023/08/19 06:48:36;;;;;;;;;;;;;;;30.22;32.04;101860.66;5072948;28;19962;-64
2023/08/19 06:51:02;;;;;;;;;;;;;;;30.25;31.93;101860.91;5072860;28;20281;-64
2023/08/19 06:53:27;;;;;;;;;;;;;;;30.22;31.25;101869.81;5071365;28;19916;-64
2023/08/19 06:55:58;;;;;;;;;;;;;;;30.21;31.44;101873.69;5071975;28;19912;-64
2023/08/19 06:58:28;;;;;;;;;;;;;;;30.09;31.35;101868.56;5072786;28;20540;-64
2023/08/19 07:00:59;;;;;;;;;;;;;;;30.17;31.50;101869.88;5072670;28;19917;-64
2023/08/19 07:03:27;;;;;;;;;;;;;;;30.22;31.41;101867.06;5091112;28;19920;-64
2023/08/19 07:05:54;;;;;;;;;;;;;;;30.32;31.41;101865.31;5086251;28;20342;-64
2023/08/19 07:08:19;;;;;;;;;;;;;;;30.35;31.72;101856.41;5072485;28;20006;-64
2023/08/19 07:10:45;;;;;;;;;;;;;;;30.43;31.33;101864.09;5072793;28;19999;-64
2023/08/19 07:13:11;;;;;;;;;;;;;;;30.46;31.29;101856.03;5072554;28;20470;-64
2023/08/19 07:15:41;;;;;;;;;;;;;;;30.55;30.94;101867.25;5072437;28;19920;-64
2023/08/19 07:18:08;;;;;;;;;;;;;;;30.65;30.92;101864.38;5072562;28;19958;-64
2023/08/19 07:20:34;;;;;;;;;;;;;;;30.75;30.92;101862.63;5072673;28;19916;-64
2023/08/19 07:22:59;;;;;;;;;;;;;;;30.79;30.92;101855.34;5072327;28;19981;-64
2023/08/19 07:25:25;;;;;;;;;;;;;;;30.83;30.76;101848.91;5072241;28;20435;-64
2023/08/19 07:27:50;;;;;;;;;;;;;;;30.87;30.57;101849.97;5072480;28;19935;-64
2023/08/19 07:30:16;;;;;;;;;;;;;;;30.84;30.26;101844.19;5072374;28;19935;-64
2023/08/19 07:32:42;;;;;;;;;;;;;;;30.92;30.42;101838.00;5072587;28;19913;-64
2023/08/19 07:35:08;;;;;;;;;;;;;;;30.88;30.23;101828.59;5072221;28;19993;-64
2023/08/19 07:37:33;;;;;;;;;;;;;;;30.81;30.54;101830.91;5075884;28;20431;-64
2023/08/19 07:39:59;;;;;;;;;;;;;;;30.77;30.56;101850.09;5076374;28;19912;-64
2023/08/19 07:42:25;;;;;;;;;;;;;;;30.68;30.16;101843.53;5074598;28;20296;-64
2023/08/19 07:44:50;;;;;;;;;;;;;;;30.55;30.11;101845.09;5074699;28;19919;-64
2023/08/19 07:47:15;;;;;;;;;;;;;;;30.46;30.69;101857.94;5075773;28;19920;-64
2023/08/19 07:49:41;;;;;;;;;;;;;;;30.43;30.86;101864.09;5076152;28;20290;-64
2023/08/19 07:52:07;;;;;;;;;;;;;;;30.43;30.71;101864.09;5075559;28;19962;-64
2023/08/19 07:54:32;;;;;;;;;;;;;;;30.48;30.46;101866.81;5073629;28;19913;-64
2023/08/19 07:56:58;;;;;;;;;;;;;;;30.56;30.71;101881.97;5075703;28;19916;-64
2023/08/19 07:59:27;;;;;;;;;;;;;;;30.58;30.13;101871.41;5075589;28;19918;-64
2023/08/19 08:01:52;;;;;;;;;;;;;;;30.64;30.43;101871.03;5076887;28;19935;-64
2023/08/19 08:04:18;;;;;;;;;;;;;;;30.71;30.64;101867.09;5075168;28;19924;-64
2023/08/19 08:06:45;;;;;;;;;;;;;;;30.69;30.23;101870.16;5075054;28;19916;-64
2023/08/19 08:09:11;;;;;;;;;;;;;;;30.67;30.27;101861.31;5075475;28;19952;-64
2023/08/19 08:11:36;;;;;;;;;;;;;;;30.56;29.99;101860.63;5075390;28;19955;-64
2023/08/19 08:14:02;;;;;;;;;;;;;;;30.37;29.94;101848.63;5075026;28;19930;-64
2023/08/19 08:16:27;;;;;;;;;;;;;;;30.39;30.12;101851.94;5075031;28;19992;-64
2023/08/19 08:18:53;;;;;;;;;;;;;;;30.42;30.30;101854.97;5075355;28;19960;-64
2023/08/19 08:21:20;;;;;;;;;;;;;;;30.48;29.84;101852.97;5074898;28;20045;-64
2023/08/19 08:23:47;;;;;;;;;;;;;;;30.58;29.81;101849.22;5056237;28;19956;-64
2023/08/19 08:26:13;;;;;;;;;;;;;;;30.57;30.38;101856.72;5074813;28;19912;-64
2023/08/19 08:28:38;;;;;;;;;;;;;;;30.52;30.17;101848.47;5074726;28;20250;-64
2023/08/19 08:31:04;;;;;;;;;;;;;;;30.64;30.14;101846.09;5074744;28;19966;-64
2023/08/19 08:33:29;;;;;;;;;;;;;;;30.67;30.07;101847.47;5074889;28;19924;-64
2023/08/19 08:35:54;;;;;;;;;;;;;;;30.64;29.51;101845.25;5074833;28;20428;-63
2023/08/19 08:38:20;;;;;;;;;;;;;;;30.67;29.85;101848.28;5074895;28;19912;-63
2023/08/19 08:40:45;;;;;;;;;;;;;;;30.62;30.02;101834.47;5074609;28;19913;-63
2023/08/19 08:43:11;;;;;;;;;;;;;;;30.52;29.80;101839.34;5074557;28;19917;-63
2023/08/19 08:45:37;;;;;;;;;;;;;;;30.58;29.63;101836.19;5074598;28;19912;-63
2023/08/19 08:48:04;;;;;;;;;;;;;;;30.71;30.17;101834.63;5060279;28;19924;-63
2023/08/19 08:50:29;;;;;;;;;;;;;;;30.79;29.76;101833.97;5075035;28;19919;-64
2023/08/19 08:52:56;;;;;;;;;;;;;;;30.87;29.69;101833.31;5074954;28;19991;-63
2023/08/19 08:55:21;;;;;;;;;;;;;;;30.82;29.60;101833.38;5074153;28;20264;-63
2023/08/19 08:57:46;;;;;;;;;;;;;;;30.84;29.38;101831.13;5074520;28;20003;-63
2023/08/19 09:00:12;;;;;;;;;;;;;;;30.86;29.89;101823.34;5074318;28;19959;-63
2023/08/19 09:02:38;;;;;;;;;;;;;;;30.98;29.54;101811.84;5086412;28;19927;-63
2023/08/19 09:05:05;;;;;;;;;;;;;;;31.14;29.58;101815.22;5094671;28;19920;-63
2023/08/19 09:07:31;;;;;;;;;;;;;;;31.23;28.99;101818.94;5094385;28;20003;-63
2023/08/19 09:09:58;;;;;;;;;;;;;;;31.33;29.23;101812.41;5094586;28;19922;-63
2023/08/19 09:12:25;;;;;;;;;;;;;;;31.46;28.92;101816.38;5094512;28;19916;-63
2023/08/19 09:14:57;;;;;;;;;;;;;;;31.52;29.31;101808.81;5091087;28;19939;-63
2023/08/19 09:17:23;;;;;;;;;;;;;;;31.68;29.15;101815.75;5074020;28;19999;-63
2023/08/19 09:19:48;;;;;;;;;;;;;;;31.83;28.85;101823.84;5074826;28;19998;-63
2023/08/19 09:22:16;;;;;;;;;;;;;;;32.03;28.89;101819.06;5074141;28;20296;-63
2023/08/19 09:24:42;;;;;;;;;;;;;;;32.27;28.65;101816.09;5076830;28;20440;-63
2023/08/19 09:27:07;;;;;;;;;;;;;;;32.44;28.27;101812.72;5074840;28;19924;-63
2023/08/19 09:29:33;;;;;;;;;;;;;;;32.50;28.00;101810.63;5073949;28;20006;-64
2023/08/19 09:31:58;;;;;;;;;;;;;;;32.63;27.65;101815.41;5074182;28;19916;-64
2023/08/19 09:34:24;;;;;;;;;;;;;;;32.72;27.58;101821.06;5073954;28;20320;-64
2023/08/19 09:36:53;;;;;;;;;;;;;;;32.88;28.00;101818.78;5073740;28;19923;-64
2023/08/19 09:39:19;;;;;;;;;;;;;;;33.12;27.79;101818.53;5073835;28;19917;-64
2023/08/19 09:41:44;;;;;;;;;;;;;;;33.37;27.92;101817.91;5073505;28;20015;-64
2023/08/19 09:44:13;;;;;;;;;;;;;;;33.49;27.51;101813.75;5073739;28;20359;-64
2023/08/19 09:46:39;;;;;;;;;;;;;;;33.58;26.97;101811.81;5073783;28;19921;-64
2023/08/19 09:49:04;;;;;;;;;;;;;;;33.74;27.18;101807.53;5073594;28;20003;-64
2023/08/19 09:51:29;;;;;;;;;;;;;;;33.82;26.70;101803.16;5073224;28;20007;-64
2023/08/19 09:53:55;;;;;;;;;;;;;;;33.83;26.49;101806.78;5072799;28;20276;-63
2023/08/19 09:56:26;;;;;;;;;;;;;;;33.87;26.14;101797.44;5073481;28;19958;-64
2023/08/19 09:58:56;;;;;;;;;;;;;;;33.91;26.23;101801.22;5072538;28;20056;-64
2023/08/19 10:01:22;;;;;;;;;;;;;;;33.93;26.57;101792.53;5075447;28;19962;-64
2023/08/19 10:03:48;;;;;;;;;;;;;;;34.11;26.59;101785.91;5075976;28;20376;-64
2023/08/19 10:06:16;;;;;;;;;;;;;;;34.23;26.68;101776.97;5073178;28;19913;-64
2023/08/19 10:08:43;;;;;;;;;;;;;;;34.23;26.60;101768.59;5073498;28;19913;-64
2023/08/19 10:11:14;;;;;;;;;;;;;;;34.23;26.12;101764.97;5073310;28;20316;-63
2023/08/19 10:13:40;;;;;;;;;;;;;;;34.27;25.96;101777.97;5073510;28;19913;-64
2023/08/19 10:16:06;;;;;;;;;;;;;;;34.21;26.02;101773.66;5073209;28;19913;-64
2023/08/19 10:18:32;;;;;;;;;;;;;;;34.22;26.09;101780.09;5073199;28;19920;-64
2023/08/19 10:20:59;;;;;;;;;;;;;;;34.26;25.63;101767.13;5072869;28;19913;-64
2023/08/19 10:23:25;;;;;;;;;;;;;;;34.33;26.49;101756.31;5072870;28;19952;-64
2023/08/19 10:25:50;;;;;;;;;;;;;;;34.42;26.57;101757.16;5072774;28;20017;-65
2023/08/19 10:28:24;;;;;;;;;;;;;;;34.46;25.41;101762.91;5072866;28;19920;-64
2023/08/19 10:31:07;;;;;;;;;;;;;;;34.47;25.28;101770.97;5073158;28;19913;-64
2023/08/19 10:33:36;;;;;;;;;;;;;;;34.50;25.57;101763.91;5073058;28;19917;-64
2023/08/19 10:36:02;;;;;;;;;;;;;;;34.62;25.64;101763.25;5073051;28;19920;-64
2023/08/19 10:38:42;;;;;;;;;;;;;;;34.68;25.15;101773.16;5072511;28;19913;-64
2023/08/19 10:41:27;;;;;;;;;;;;;;;34.68;25.08;101776.78;5072577;28;19917;-64
2023/08/19 10:44:11;;;;;;;;;;;;;;;34.73;25.12;101773.00;5072568;28;19916;-64
2023/08/19 10:46:37;;;;;;;;;;;;;;;34.74;25.54;101774.66;5072612;28;19916;-64
2023/08/19 10:49:03;;;;;;;;;;;;;;;34.65;25.42;101771.00;5072669;28;19913;-64
2023/08/19 10:52:00;;;;;;;;;;;;;;;34.72;24.83;101773.34;5072241;28;19946;-64
2023/08/19 10:54:31;;;;;;;;;;;;;;;34.80;25.17;101776.13;5055539;28;19947;-64
2023/08/19 10:57:08;;;;;;;;;;;;;;;34.85;25.07;101775.16;5054673;28;19922;-64
2023/08/19 10:59:34;;;;;;;;;;;;;;;34.89;25.66;101771.38;5072899;28;19912;-64
2023/08/19 11:01:59;;;;;;;;;;;;;;;34.88;25.00;101774.47;5079366;28;20288;-64
2023/08/19 11:04:25;;;;;;;;;;;;;;;34.77;24.87;101765.63;5092528;28;19981;-64
2023/08/19 11:06:53;;;;;;;;;;;;;;;34.73;24.59;101766.59;5092779;28;19965;-64
2023/08/19 11:09:19;;;;;;;;;;;;;;;34.63;24.79;101762.13;5092473;28;20361;-64
2023/08/19 11:11:44;;;;;;;;;;;;;;;34.60;24.97;101771.13;5084565;28;19916;-64
2023/08/19 11:14:19;;;;;;;;;;;;;;;34.51;24.92;101769.16;5076461;28;19912;-64
2023/08/19 11:16:52;;;;;;;;;;;;;;;34.60;25.27;101774.75;5081636;28;19959;-64
2023/08/19 11:19:17;;;;;;;;;;;;;;;34.72;24.62;101771.38;5083397;28;19912;-64
2023/08/19 11:21:43;;;;;;;;;;;;;;;34.86;24.89;101765.59;5085606;28;19923;-64
2023/08/19 11:24:09;;;;;;;;;;;;;;;34.91;24.38;101765.47;5079008;28;19956;-64
2023/08/19 11:26:41;;;;;;;;;;;;;;;35.00;24.78;101759.88;5058532;28;19912;-64
2023/08/19 11:29:07;;;;;;;;;;;;;;;35.05;24.05;101752.16;5076179;28;20011;-64
2023/08/19 11:31:33;;;;;;;;;;;;;;;35.01;24.41;101755.91;5058101;28;20015;-63
2023/08/19 11:33:58;;;;;;;;;;;;;;;34.90;24.37;101761.03;5076037;28;20357;-64
2023/08/19 11:36:26;;;;;;;;;;;;;;;34.77;24.01;101762.00;5058044;28;19916;-64
2023/08/19 11:38:56;;;;;;;;;;;;;;;34.73;24.34;101752.63;5076352;28;19912;-64
2023/08/19 11:41:21;;;;;;;;;;;;;;;34.73;25.59;101747.06;5075824;28;19913;-64
2023/08/19 11:43:46;;;;;;;;;;;;;;;34.74;24.76;101745.91;5075855;28;19917;-64
2023/08/19 11:46:11;;;;;;;;;;;;;;;34.67;24.50;101743.56;5076245;28;19913;-64
2023/08/19 11:48:37;;;;;;;;;;;;;;;34.64;24.48;101738.63;5075801;28;20281;-64
2023/08/19 11:51:08;;;;;;;;;;;;;;;34.69;24.58;101746.88;5076086;28;19947;-64
2023/08/19 11:53:33;;;;;;;;;;;;;;;34.73;24.86;101741.47;5075843;28;19920;-64
2023/08/19 11:56:02;;;;;;;;;;;;;;;34.75;24.52;101730.81;5075112;28;19923;-64
2023/08/19 11:58:48;;;;;;;;;;;;;;;34.78;24.53;101738.53;5075322;28;20300;-64
2023/08/19 12:01:14;;;;;;;;;;;;;;;34.73;24.32;101728.34;5074114;28;20369;-64
2023/08/19 12:03:43;;;;;;;;;;;;;;;34.83;23.68;101722.44;5064871;28;19927;-64
2023/08/19 12:06:08;;;;;;;;;;;;;;;34.88;24.08;101719.50;5054162;28;19924;-63
2023/08/19 12:08:34;;;;;;;;;;;;;;;35.00;23.68;101731.97;5054290;28;19913;-64
2023/08/19 12:10:59;;;;;;;;;;;;;;;35.11;23.43;101730.47;5053848;28;19963;-64
2023/08/19 12:13:27;;;;;;;;;;;;;;;35.17;23.46;101719.94;5054229;28;19916;-64
2023/08/19 12:15:52;;;;;;;;;;;;;;;35.32;23.66;101721.44;5054244;28;19918;-64
2023/08/19 12:18:18;;;;;;;;;;;;;;;35.43;22.62;101722.72;5054283;28;19990;-64
2023/08/19 12:20:44;;;;;;;;;;;;;;;35.51;23.99;101721.84;5054351;28;19913;-64
2023/08/19 12:23:09;;;;;;;;;;;;;;;35.55;22.61;101708.88;5053329;28;19966;-64
2023/08/19 12:25:46;;;;;;;;;;;;;;;35.51;22.97;101713.47;5053821;28;20381;-64
2023/08/19 12:28:12;;;;;;;;;;;;;;;35.47;22.51;101715.28;5054341;28;20409;-64
2023/08/19 12:30:37;;;;;;;;;;;;;;;35.51;22.76;101715.44;5054011;28;19965;-64
2023/08/19 12:33:02;;;;;;;;;;;;;;;35.56;22.69;101716.09;5054019;28;20405;-64